Time;durP1;ratioP1;P1;durP2;ratioP2;P2;SDS_P1;SDS_P2;PMS_P1;PMS_P2;Temp;Humidity;BMP_temperature;BMP_pressure;BME280_temperature;BME280_humidity;BME280_pressure;Samples;Min_cycle;Max_cycle;Signal;HPM_P1;HPM_P2
2024/01/19 00:01:30;;;;;;;3.80;1.10;;;0.10;99.90;;;;;;5061521;28;20028;-68
2024/01/19 00:03:56;;;;;;;7.13;0.88;;;1.10;99.90;;;;;;5045294;28;20151;-68
2024/01/19 00:06:22;;;;;;;7.00;1.08;;;0.40;99.90;;;;;;5063315;28;20626;-68
2024/01/19 00:08:48;;;;;;;2.45;0.52;;;0.00;99.90;;;;;;5060925;28;20033;-67
2024/01/19 00:11:15;;;;;;;3.13;1.15;;;0.00;99.90;;;;;;5061410;28;20050;-65
2024/01/19 00:13:44;;;;;;;3.75;0.60;;;0.10;99.90;;;;;;5044880;28;20345;-65
2024/01/19 00:16:10;;;;;;;5.30;0.70;;;0.10;99.90;;;;;;5038490;28;20599;-65
2024/01/19 00:18:36;;;;;;;3.03;0.57;;;0.10;99.90;;;;;;5060435;28;20040;-64
2024/01/19 00:21:02;;;;;;;3.65;0.60;;;0.20;99.90;;;;;;5060708;28;20163;-64
2024/01/19 00:23:27;;;;;;;2.30;0.60;;;0.20;99.90;;;;;;5044046;28;20904;-64
2024/01/19 00:25:53;;;;;;;5.82;0.95;;;0.20;99.90;;;;;;5060458;28;20044;-65
2024/01/19 00:28:19;;;;;;;3.83;0.70;;;0.30;99.90;;;;;;5061581;28;20576;-65
2024/01/19 00:30:44;;;;;;;2.88;0.50;;;0.30;99.90;;;;;;5057667;28;20049;-65
2024/01/19 00:33:10;;;;;;;9.60;0.95;;;0.30;99.90;;;;;;5085102;28;20151;-65
2024/01/19 00:35:36;;;;;;;5.32;0.70;;;0.40;99.90;;;;;;5060344;28;20037;-65
2024/01/19 00:38:03;;;;;;;2.95;0.50;;;0.70;99.90;;;;;;5058907;28;20122;-65
2024/01/19 00:40:29;;;;;;;3.38;0.60;;;0.30;99.90;;;;;;5058971;28;20593;-66
2024/01/19 00:42:54;;;;;;;4.88;0.50;;;0.40;99.90;;;;;;5060722;28;20087;-65
2024/01/19 00:45:20;;;;;;;2.30;0.55;;;0.40;99.90;;;;;;5061502;28;20147;-65
2024/01/19 00:47:46;;;;;;;3.60;0.60;;;0.70;99.90;;;;;;5061816;28;20428;-68
2024/01/19 00:50:13;;;;;;;5.53;0.65;;;0.40;99.90;;;;;;5042623;28;20049;-65
2024/01/19 00:52:39;;;;;;;3.70;0.60;;;0.40;99.90;;;;;;5058808;28;20520;-64
2024/01/19 00:55:06;;;;;;;4.45;0.70;;;1.10;99.90;;;;;;5060491;28;20044;-65
2024/01/19 00:57:31;;;;;;;5.15;0.73;;;0.30;99.90;;;;;;5061121;28;20040;-65
2024/01/19 00:59:57;;;;;;;3.83;0.70;;;0.30;99.90;;;;;;5061220;28;20551;-65
2024/01/19 01:02:27;;;;;;;2.30;0.52;;;0.30;99.90;;;;;;5060854;28;20047;-65
2024/01/19 01:04:54;;;;;;;4.15;0.80;;;0.30;99.90;;;;;;5061185;28;20109;-65
2024/01/19 01:07:21;;;;;;;1.38;0.52;;;0.30;99.90;;;;;;5059198;28;20154;-65
2024/01/19 01:09:47;;;;;;;4.32;0.60;;;0.30;99.90;;;;;;5059462;28;20051;-65
2024/01/19 01:12:13;;;;;;;3.72;0.60;;;0.20;99.90;;;;;;5059269;28;20056;-65
2024/01/19 01:14:39;;;;;;;3.50;0.75;;;0.20;99.90;;;;;;5060927;28;20063;-65
2024/01/19 01:17:05;;;;;;;2.90;0.75;;;0.40;99.90;;;;;;5043726;28;20045;-65
2024/01/19 01:19:34;;;;;;;2.17;0.63;;;0.20;99.90;;;;;;5043911;28;20051;-65
2024/01/19 01:22:00;;;;;;;4.10;0.65;;;0.20;99.90;;;;;;5062049;28;20059;-64
2024/01/19 01:24:26;;;;;;;2.47;0.70;;;0.10;99.90;;;;;;5064563;28;20040;-64
2024/01/19 01:26:52;;;;;;;2.22;0.85;;;0.10;99.90;;;;;;5048816;28;20453;-64
2024/01/19 01:29:17;;;;;;;5.78;0.70;;;0.10;99.90;;;;;;5063748;28;20055;-64
2024/01/19 01:31:43;;;;;;;1.80;0.60;;;0.10;99.90;;;;;;5064847;28;20032;-64
2024/01/19 01:34:09;;;;;;;5.85;0.80;;;0.10;99.90;;;;;;5063461;28;20036;-64
2024/01/19 01:36:35;;;;;;;3.95;0.60;;;0.00;99.90;;;;;;5046765;28;20098;-64
2024/01/19 01:39:00;;;;;;;3.20;0.70;;;0.00;99.90;;;;;;5062132;28;20060;-64
2024/01/19 01:41:26;;;;;;;6.15;1.10;;;0.00;99.90;;;;;;5047406;28;20048;-64
2024/01/19 01:43:52;;;;;;;5.90;1.13;;;0.00;99.90;;;;;;5064786;28;20045;-64
2024/01/19 01:46:18;;;;;;;6.22;0.93;;;0.00;99.90;;;;;;5061287;28;20087;-64
2024/01/19 01:48:44;;;;;;;4.35;0.73;;;0.00;99.90;;;;;;5064731;28;20040;-64
2024/01/19 01:51:10;;;;;;;5.13;0.70;;;-0.10;99.90;;;;;;5061210;28;20079;-64
2024/01/19 01:53:36;;;;;;;5.75;0.80;;;0.10;99.90;;;;;;5063511;28;20452;-64
2024/01/19 01:56:05;;;;;;;3.80;0.70;;;-0.10;99.90;;;;;;5046152;28;20041;-65
2024/01/19 01:58:31;;;;;;;8.32;1.08;;;-0.10;99.90;;;;;;5062995;28;20480;-65
2024/01/19 02:00:58;;;;;;;8.55;1.20;;;-0.10;99.90;;;;;;5063133;28;20120;-64
2024/01/19 02:03:24;;;;;;;9.35;1.20;;;-0.10;99.90;;;;;;5059512;28;20045;-63
2024/01/19 02:05:52;;;;;;;7.20;1.00;;;-0.20;99.90;;;;;;5065434;28;20053;-64
2024/01/19 02:08:18;;;;;;;5.72;0.70;;;-0.20;99.90;;;;;;5062852;28;20086;-64
2024/01/19 02:10:44;;;;;;;9.85;1.10;;;-0.10;99.90;;;;;;5064074;28;20052;-65
2024/01/19 02:13:09;;;;;;;4.90;0.75;;;-0.10;99.90;;;;;;5062892;28;20112;-64
2024/01/19 02:15:37;;;;;;;8.40;1.00;;;-0.10;99.90;;;;;;5063701;28;20036;-64
2024/01/19 02:18:04;;;;;;;5.85;0.90;;;-0.10;99.90;;;;;;5047582;28;20044;-64
2024/01/19 02:20:30;;;;;;;3.25;0.70;;;-0.10;99.90;;;;;;5045817;28;20045;-64
2024/01/19 02:22:56;;;;;;;4.05;0.98;;;-0.10;99.90;;;;;;5079440;28;20067;-64
2024/01/19 02:25:22;;;;;;;7.05;0.95;;;-0.10;99.90;;;;;;5064307;28;20094;-66
2024/01/19 02:27:47;;;;;;;3.92;0.90;;;-0.10;99.90;;;;;;5062230;28;20455;-66
2024/01/19 02:30:13;;;;;;;4.18;0.85;;;-0.10;99.90;;;;;;5043667;28;20037;-65
2024/01/19 02:32:39;;;;;;;6.70;0.75;;;-0.10;99.90;;;;;;5061482;28;20144;-66
2024/01/19 02:35:05;;;;;;;2.33;0.63;;;-0.10;99.90;;;;;;5045834;28;20040;-65
2024/01/19 02:37:31;;;;;;;8.70;1.02;;;-0.10;99.90;;;;;;5061794;28;20317;-65
2024/01/19 02:39:57;;;;;;;3.20;0.82;;;-0.10;99.90;;;;;;5061336;28;20555;-65
2024/01/19 02:42:23;;;;;;;8.32;1.10;;;-0.10;99.90;;;;;;5060066;28;20044;-65
2024/01/19 02:44:48;;;;;;;7.13;1.10;;;-0.10;99.90;;;;;;5062118;28;20072;-65
2024/01/19 02:47:14;;;;;;;10.02;1.10;;;-0.10;99.90;;;;;;5045287;28;20173;-65
2024/01/19 02:49:40;;;;;;;5.88;0.88;;;-0.10;99.90;;;;;;5061544;28;20051;-65
2024/01/19 02:52:06;;;;;;;4.43;0.80;;;-0.10;99.90;;;;;;5060767;28;20044;-65
2024/01/19 02:54:31;;;;;;;6.57;1.00;;;0.40;99.90;;;;;;5043910;28;20040;-65
2024/01/19 02:56:57;;;;;;;6.63;0.68;;;-0.10;99.90;;;;;;5061092;28;20067;-65
2024/01/19 02:59:23;;;;;;;3.55;0.75;;;-0.10;99.90;;;;;;5062227;28;20055;-65
2024/01/19 03:01:49;;;;;;;4.22;0.90;;;-0.10;99.90;;;;;;5061917;28;20045;-65
2024/01/19 03:04:14;;;;;;;6.07;1.08;;;-0.10;99.90;;;;;;5061362;28;20058;-65
2024/01/19 03:06:40;;;;;;;4.85;0.98;;;-0.10;99.90;;;;;;5061163;28;20048;-64
2024/01/19 03:09:06;;;;;;;9.18;1.10;;;-0.20;99.90;;;;;;5063051;28;20044;-64
2024/01/19 03:11:32;;;;;;;6.13;0.98;;;-0.20;99.90;;;;;;5063288;28;20055;-66
2024/01/19 03:13:58;;;;;;;7.68;1.73;;;-0.20;99.90;;;;;;5063046;28;20036;-66
2024/01/19 03:16:24;;;;;;;8.40;1.30;;;-0.20;99.90;;;;;;5062972;28;20571;-67
2024/01/19 03:18:51;;;;;;;3.88;0.80;;;-0.20;99.90;;;;;;5063413;28;20094;-66
2024/01/19 03:21:17;;;;;;;5.03;1.05;;;-0.20;99.90;;;;;;5063141;28;21142;-66
2024/01/19 03:23:43;;;;;;;6.18;1.15;;;-0.20;99.90;;;;;;5063253;28;20047;-67
2024/01/19 03:26:09;;;;;;;3.95;0.82;;;-0.20;99.90;;;;;;5064434;28;20545;-66
2024/01/19 03:28:34;;;;;;;11.63;1.20;;;-0.20;99.90;;;;;;5063312;28;20036;-67
2024/01/19 03:31:00;;;;;;;5.40;1.20;;;-0.20;99.90;;;;;;5063380;28;20083;-67
2024/01/19 03:33:26;;;;;;;5.32;1.20;;;-0.30;99.90;;;;;;5047130;28;20048;-67
2024/01/19 03:35:51;;;;;;;9.00;1.23;;;-0.10;99.90;;;;;;5063954;28;20037;-67
2024/01/19 03:38:18;;;;;;;6.20;1.20;;;-0.10;99.90;;;;;;5063044;28;20040;-67
2024/01/19 03:40:44;;;;;;;6.57;1.05;;;-0.10;99.90;;;;;;5064610;28;20425;-67
2024/01/19 03:43:09;;;;;;;8.68;1.38;;;-0.10;99.90;;;;;;5062146;28;20036;-67
2024/01/19 03:45:35;;;;;;;8.18;1.02;;;-0.10;99.90;;;;;;5063242;28;20041;-67
2024/01/19 03:48:03;;;;;;;7.40;1.00;;;-0.10;99.90;;;;;;5058007;28;20044;-67
2024/01/19 03:50:28;;;;;;;6.13;1.00;;;-0.10;99.90;;;;;;5048223;28;20079;-67
2024/01/19 03:52:54;;;;;;;6.30;1.00;;;0.00;99.90;;;;;;5062296;28;20080;-67
2024/01/19 03:55:20;;;;;;;4.65;0.90;;;0.00;99.90;;;;;;5045699;28;20045;-67
2024/01/19 03:57:48;;;;;;;7.15;1.08;;;0.00;99.90;;;;;;5046442;28;20052;-67
2024/01/19 04:00:14;;;;;;;14.38;1.40;;;0.00;99.90;;;;;;5062284;28;20727;-68
2024/01/19 04:02:40;;;;;;;5.10;0.70;;;0.00;99.90;;;;;;5062638;28;20059;-67
2024/01/19 04:05:07;;;;;;;6.43;0.88;;;0.00;99.90;;;;;;5062193;28;20144;-68
2024/01/19 04:07:33;;;;;;;6.22;0.75;;;0.00;99.90;;;;;;5062685;28;20057;-67
2024/01/19 04:09:59;;;;;;;11.20;1.10;;;0.00;99.90;;;;;;5062590;28;20036;-68
2024/01/19 04:12:24;;;;;;;8.15;1.05;;;-0.10;99.90;;;;;;5064341;28;20063;-68
2024/01/19 04:14:50;;;;;;;5.03;0.80;;;-0.10;99.90;;;;;;5061898;28;20841;-67
2024/01/19 04:17:16;;;;;;;2.90;0.90;;;-0.10;99.90;;;;;;5062193;28;20072;-67
2024/01/19 04:19:41;;;;;;;8.50;1.45;;;-0.10;99.90;;;;;;5062831;28;20127;-67
2024/01/19 04:22:07;;;;;;;8.13;0.98;;;-0.10;99.90;;;;;;5064443;28;20056;-67
2024/01/19 04:24:33;;;;;;;8.10;0.95;;;-0.10;99.90;;;;;;5062716;28;20507;-67
2024/01/19 04:26:59;;;;;;;6.47;1.23;;;-0.20;99.90;;;;;;5064331;28;20451;-67
2024/01/19 04:29:24;;;;;;;7.18;0.93;;;-0.20;99.90;;;;;;5064196;28;20036;-67
2024/01/19 04:31:52;;;;;;;10.35;1.35;;;0.10;99.90;;;;;;5062639;28;20037;-67
2024/01/19 04:34:18;;;;;;;6.00;1.20;;;-0.20;99.90;;;;;;5062718;28;20052;-67
2024/01/19 04:36:45;;;;;;;12.68;1.08;;;-0.20;99.90;;;;;;5062247;28;20515;-66
2024/01/19 04:39:11;;;;;;;7.35;0.95;;;0.10;99.90;;;;;;5062992;28;20048;-64
2024/01/19 04:41:37;;;;;;;5.57;0.95;;;-0.30;99.90;;;;;;5061702;28;20090;-64
2024/01/19 04:44:03;;;;;;;10.02;1.20;;;-0.30;99.90;;;;;;5061873;28;20041;-65
2024/01/19 04:46:28;;;;;;;11.32;1.42;;;-0.30;99.90;;;;;;5061665;28;20045;-65
2024/01/19 04:48:55;;;;;;;8.48;1.10;;;0.40;99.90;;;;;;5062118;28;20143;-64
2024/01/19 04:51:23;;;;;;;8.85;1.25;;;-0.40;99.90;;;;;;5063183;28;20674;-64
2024/01/19 04:53:49;;;;;;;12.05;0.98;;;-0.40;99.90;;;;;;5063949;28;20040;-64
2024/01/19 04:56:15;;;;;;;7.28;1.10;;;0.60;99.90;;;;;;5044817;28;22459;-64
2024/01/19 04:58:40;;;;;;;4.88;1.13;;;-0.40;99.90;;;;;;5061050;28;20643;-65
2024/01/19 05:01:06;;;;;;;9.70;1.48;;;-0.40;99.90;;;;;;5063272;28;20044;-63
2024/01/19 05:03:32;;;;;;;15.45;2.10;;;-0.50;99.90;;;;;;5062306;28;20459;-64
2024/01/19 05:05:58;;;;;;;8.95;1.50;;;-0.50;99.90;;;;;;5062952;28;20052;-64
2024/01/19 05:08:24;;;;;;;10.18;1.67;;;-0.50;99.90;;;;;;5061540;28;20044;-64
2024/01/19 05:10:50;;;;;;;9.13;1.55;;;-0.50;99.90;;;;;;5061623;28;20053;-64
2024/01/19 05:13:15;;;;;;;6.28;1.23;;;-0.50;99.90;;;;;;5061239;28;20580;-64
2024/01/19 05:15:43;;;;;;;12.85;1.80;;;-0.60;99.90;;;;;;5089391;28;20036;-64
2024/01/19 05:18:08;;;;;;;8.38;1.33;;;-0.60;99.90;;;;;;5043945;28;20064;-64
2024/01/19 05:20:34;;;;;;;7.07;1.13;;;-0.60;99.90;;;;;;5063054;28;20736;-64
2024/01/19 05:23:00;;;;;;;8.73;1.13;;;-0.60;99.90;;;;;;5061758;28;20044;-64
2024/01/19 05:25:25;;;;;;;13.15;1.40;;;-0.60;99.90;;;;;;5061051;28;20580;-64
2024/01/19 05:27:53;;;;;;;12.48;1.33;;;-0.60;99.90;;;;;;5061763;28;20608;-64
2024/01/19 05:30:19;;;;;;;4.35;1.13;;;-0.70;99.90;;;;;;5062320;28;20162;-64
2024/01/19 05:32:45;;;;;;;6.60;1.60;;;-0.70;99.90;;;;;;5062063;28;20512;-64
2024/01/19 05:35:11;;;;;;;11.38;1.33;;;-0.70;99.90;;;;;;5062494;28;20044;-64
2024/01/19 05:37:38;;;;;;;11.73;1.30;;;-0.70;99.90;;;;;;5060753;28;20120;-64
2024/01/19 05:40:04;;;;;;;9.07;1.42;;;-0.70;99.90;;;;;;5061591;28;20051;-64
2024/01/19 05:42:29;;;;;;;8.95;1.20;;;-0.70;99.90;;;;;;5061149;28;20049;-64
2024/01/19 05:44:55;;;;;;;8.35;1.63;;;-0.70;99.90;;;;;;5056242;28;20051;-65
2024/01/19 05:47:21;;;;;;;9.65;0.90;;;-0.70;99.90;;;;;;5055638;28;20047;-64
2024/01/19 05:49:47;;;;;;;11.43;1.48;;;-0.70;99.90;;;;;;5058628;28;20056;-64
2024/01/19 05:52:12;;;;;;;12.45;1.70;;;-0.70;99.90;;;;;;5059738;28;20669;-64
2024/01/19 05:54:39;;;;;;;14.00;1.75;;;-0.80;99.90;;;;;;5060805;28;20060;-64
2024/01/19 05:57:05;;;;;;;8.32;1.70;;;-0.80;99.90;;;;;;5042407;28;20560;-64
2024/01/19 05:59:30;;;;;;;10.43;1.77;;;-0.80;99.90;;;;;;5056853;28;20043;-64
2024/01/19 06:01:56;;;;;;;11.50;2.47;;;-0.80;99.90;;;;;;5089251;28;20114;-64
2024/01/19 06:04:22;;;;;;;8.60;1.58;;;-0.80;99.90;;;;;;5041295;28;21613;-65
2024/01/19 06:06:48;;;;;;;13.82;1.75;;;-0.90;99.90;;;;;;5057322;28;20106;-64
2024/01/19 06:09:14;;;;;;;9.45;1.35;;;-0.90;99.90;;;;;;5057311;28;20040;-64
2024/01/19 06:11:39;;;;;;;17.65;3.88;;;-0.90;99.90;;;;;;5042675;28;20125;-64
2024/01/19 06:14:05;;;;;;;13.48;1.40;;;-0.90;99.90;;;;;;5062903;28;20989;-64
2024/01/19 06:16:31;;;;;;;9.50;1.60;;;-0.90;99.90;;;;;;5042086;28;20044;-64
2024/01/19 06:18:58;;;;;;;8.63;1.02;;;-0.80;99.90;;;;;;5063524;28;20041;-64
2024/01/19 06:21:24;;;;;;;8.45;1.50;;;-0.80;99.90;;;;;;5061615;28;20492;-64
2024/01/19 06:23:52;;;;;;;5.68;0.85;;;-0.80;99.90;;;;;;5060097;28;20701;-64
2024/01/19 06:26:18;;;;;;;7.93;1.20;;;-0.70;99.90;;;;;;5038815;28;20048;-64
2024/01/19 06:28:44;;;;;;;5.95;0.93;;;-0.70;99.90;;;;;;5032686;28;20548;-64
2024/01/19 06:31:10;;;;;;;5.45;1.02;;;-0.70;99.90;;;;;;5056056;28;20048;-64
2024/01/19 06:33:37;;;;;;;7.80;1.48;;;-0.70;99.90;;;;;;5059905;28;20039;-64
2024/01/19 06:36:10;;;;;;;12.25;1.50;;;-0.70;99.90;;;;;;5051819;28;20378;-64
2024/01/19 06:38:35;;;;;;;11.30;1.27;;;-0.60;99.90;;;;;;5029058;28;20040;-64
2024/01/19 06:41:03;;;;;;;8.38;1.02;;;-0.70;99.90;;;;;;5058030;28;20716;-63
2024/01/19 06:43:29;;;;;;;7.05;1.05;;;-0.70;99.90;;;;;;5060662;28;20512;-64
2024/01/19 06:45:54;;;;;;;6.22;1.83;;;-0.70;99.90;;;;;;5061287;28;20119;-64
2024/01/19 06:48:23;;;;;;;9.20;1.40;;;0.10;99.90;;;;;;5062639;28;20044;-64
2024/01/19 06:50:49;;;;;;;13.15;1.80;;;-0.80;99.90;;;;;;5061134;28;20041;-64
2024/01/19 06:53:15;;;;;;;9.82;1.48;;;-0.70;99.90;;;;;;5060643;28;22202;-64
2024/01/19 06:55:41;;;;;;;7.90;1.25;;;-0.80;99.90;;;;;;5054209;28;20123;-64
2024/01/19 06:58:06;;;;;;;11.38;1.30;;;-0.80;99.90;;;;;;5044261;28;20844;-64
2024/01/19 07:00:32;;;;;;;10.02;2.22;;;-0.80;99.90;;;;;;5061886;28;20049;-64
2024/01/19 07:02:59;;;;;;;10.20;1.58;;;-0.60;99.90;;;;;;5057990;28;20134;-64
2024/01/19 07:05:25;;;;;;;12.40;1.60;;;-0.80;99.90;;;;;;5042062;28;20370;-64
2024/01/19 07:07:51;;;;;;;10.48;1.35;;;-0.40;99.90;;;;;;5060509;28;20055;-64
2024/01/19 07:10:18;;;;;;;13.20;1.67;;;-0.80;99.90;;;;;;5059628;28;20071;-64
2024/01/19 07:12:44;;;;;;;15.95;3.42;;;-0.90;99.90;;;;;;5042372;28;20091;-64
2024/01/19 07:15:10;;;;;;;11.00;2.13;;;-0.90;99.90;;;;;;5059029;28;20826;-64
2024/01/19 07:17:35;;;;;;;8.43;1.40;;;-0.90;99.90;;;;;;5041941;28;20036;-64
2024/01/19 07:20:03;;;;;;;9.23;1.65;;;-0.90;99.90;;;;;;5063187;28;20036;-64
2024/01/19 07:22:30;;;;;;;10.73;2.28;;;-0.90;99.90;;;;;;5061559;28;20048;-64
2024/01/19 07:24:56;;;;;;;7.97;1.25;;;-0.90;99.90;;;;;;5061973;28;20055;-64
2024/01/19 07:27:22;;;;;;;11.77;1.00;;;-0.90;99.90;;;;;;5063369;28;20052;-64
2024/01/19 07:29:47;;;;;;;7.78;1.85;;;-1.00;99.90;;;;;;5062169;28;20052;-64
2024/01/19 07:32:13;;;;;;;8.75;1.55;;;-0.90;99.90;;;;;;5062886;28;20037;-64
2024/01/19 07:34:39;;;;;;;9.00;1.45;;;-0.90;99.90;;;;;;5038067;28;20812;-64
2024/01/19 07:37:05;;;;;;;12.55;1.40;;;-0.90;99.90;;;;;;5062816;28;20497;-64
2024/01/19 07:39:31;;;;;;;12.27;2.65;;;-0.90;99.90;;;;;;5064058;28;21043;-64
2024/01/19 07:41:56;;;;;;;7.30;1.30;;;-0.90;99.90;;;;;;5075625;28;20052;-64
2024/01/19 07:44:22;;;;;;;12.60;2.78;;;-0.60;99.90;;;;;;5061963;28;20060;-64
2024/01/19 07:46:48;;;;;;;10.05;2.30;;;-1.00;99.90;;;;;;5058944;28;20090;-64
2024/01/19 07:49:20;;;;;;;7.57;2.10;;;-1.00;99.90;;;;;;5041914;28;20098;-64
2024/01/19 07:51:47;;;;;;;7.78;1.90;;;-0.90;99.90;;;;;;5043634;28;20049;-64
2024/01/19 07:54:13;;;;;;;12.77;1.92;;;-0.90;99.90;;;;;;5058450;28;20052;-64
2024/01/19 07:56:38;;;;;;;10.43;2.30;;;-0.90;99.90;;;;;;5058838;28;20063;-64
2024/01/19 07:59:04;;;;;;;13.45;1.80;;;-0.90;99.90;;;;;;5041505;28;20040;-64
2024/01/19 08:01:30;;;;;;;8.93;1.85;;;-0.60;99.90;;;;;;5062282;28;20094;-64
2024/01/19 08:03:56;;;;;;;9.73;2.35;;;-0.90;99.90;;;;;;5057108;28;20209;-64
2024/01/19 08:06:22;;;;;;;11.13;1.35;;;-0.90;99.90;;;;;;5059184;28;20156;-64
2024/01/19 08:08:47;;;;;;;9.30;1.63;;;-0.90;99.90;;;;;;5059717;28;20048;-64
2024/01/19 08:11:13;;;;;;;8.13;1.58;;;-0.40;99.90;;;;;;5040679;28;20401;-64
2024/01/19 08:13:39;;;;;;;8.25;1.85;;;-0.90;99.90;;;;;;5058996;28;20040;-64
2024/01/19 08:16:08;;;;;;;15.52;2.78;;;-0.90;99.90;;;;;;5042397;28;20040;-64
2024/01/19 08:18:35;;;;;;;15.32;1.98;;;-0.90;99.90;;;;;;5057824;28;20048;-64
2024/01/19 08:21:04;;;;;;;16.55;2.10;;;-0.90;99.90;;;;;;5059676;28;20736;-64
2024/01/19 08:23:30;;;;;;;7.13;1.50;;;-0.90;99.90;;;;;;5053077;28;20040;-64
2024/01/19 08:25:56;;;;;;;9.48;1.90;;;-0.90;99.90;;;;;;5072358;28;20048;-64
2024/01/19 08:28:22;;;;;;;13.13;1.73;;;-0.80;99.90;;;;;;5036116;28;20531;-64
2024/01/19 08:30:48;;;;;;;11.43;1.40;;;-0.80;99.90;;;;;;5058435;28;20044;-64
2024/01/19 08:33:14;;;;;;;12.32;2.20;;;-0.80;99.90;;;;;;5056913;28;20048;-64
2024/01/19 08:35:40;;;;;;;9.82;1.38;;;-0.80;99.90;;;;;;5056483;28;20036;-64
2024/01/19 08:38:05;;;;;;;9.77;1.50;;;-0.80;99.90;;;;;;5059408;28;20130;-64
2024/01/19 08:40:31;;;;;;;11.63;1.70;;;-0.80;99.90;;;;;;5061261;28;20044;-64
2024/01/19 08:42:57;;;;;;;15.55;2.10;;;-0.70;99.90;;;;;;5042600;28;20052;-64
2024/01/19 08:45:22;;;;;;;11.07;1.80;;;-0.80;99.90;;;;;;5060066;28;20040;-63
2024/01/19 08:47:50;;;;;;;9.38;1.85;;;-0.40;99.90;;;;;;5059909;28;20040;-64
2024/01/19 08:50:16;;;;;;;8.50;1.63;;;-0.70;99.90;;;;;;5057166;28;20691;-64
2024/01/19 08:52:42;;;;;;;10.30;1.63;;;-0.70;99.90;;;;;;5055844;28;20048;-64
2024/01/19 08:55:08;;;;;;;7.85;1.55;;;-0.70;99.90;;;;;;5061069;28;20094;-64
2024/01/19 08:57:34;;;;;;;8.02;1.83;;;-0.70;99.90;;;;;;5053514;28;20045;-64
2024/01/19 09:00:01;;;;;;;9.70;1.52;;;-0.70;99.90;;;;;;5055989;28;20094;-64
2024/01/19 09:02:26;;;;;;;7.60;1.60;;;-0.60;99.90;;;;;;5056294;28;20044;-64
2024/01/19 09:04:52;;;;;;;8.70;1.60;;;-0.70;99.90;;;;;;5058948;28;20115;-63
2024/01/19 09:07:19;;;;;;;9.02;1.60;;;-0.60;99.90;;;;;;5058794;28;21070;-64
2024/01/19 09:09:44;;;;;;;12.40;1.80;;;-0.60;99.90;;;;;;5040348;28;20930;-64
2024/01/19 09:12:10;;;;;;;17.45;2.20;;;-0.60;99.90;;;;;;5054857;28;20047;-65
2024/01/19 09:14:36;;;;;;;17.20;2.25;;;-0.50;99.90;;;;;;5057420;28;20458;-64
2024/01/19 09:17:02;;;;;;;12.30;1.77;;;-0.40;99.90;;;;;;5058269;28;20114;-64
2024/01/19 09:19:28;;;;;;;7.90;1.48;;;-0.50;99.90;;;;;;5091284;28;20040;-64
2024/01/19 09:21:53;;;;;;;16.00;2.72;;;-0.50;99.90;;;;;;5060029;28;20049;-64
2024/01/19 09:24:19;;;;;;;11.05;2.13;;;-0.50;99.90;;;;;;5058182;28;20074;-64
2024/01/19 09:26:45;;;;;;;13.55;1.75;;;-0.40;99.90;;;;;;5059779;28;20507;-64
2024/01/19 09:29:11;;;;;;;10.35;1.77;;;-0.50;99.90;;;;;;5060277;28;20106;-64
2024/01/19 09:31:44;;;;;;;9.27;2.00;;;-0.40;99.90;;;;;;5060216;28;20040;-66
2024/01/19 09:34:10;;;;;;;10.88;2.13;;;-0.40;99.90;;;;;;5043555;28;20049;-64
2024/01/19 09:36:35;;;;;;;12.57;1.42;;;-0.40;99.90;;;;;;5055841;28;20071;-65
2024/01/19 09:39:01;;;;;;;9.85;1.80;;;-0.40;99.90;;;;;;5071650;28;20167;-64
2024/01/19 09:41:32;;;;;;;11.43;2.08;;;-0.40;99.90;;;;;;5049718;28;20048;-64
2024/01/19 09:44:00;;;;;;;13.68;1.73;;;-0.30;99.90;;;;;;5050525;28;20468;-64
2024/01/19 09:46:29;;;;;;;8.82;1.50;;;-0.30;99.90;;;;;;5047550;28;20050;-64
2024/01/19 09:48:59;;;;;;;17.25;2.42;;;-0.30;99.90;;;;;;5044277;28;20048;-67
2024/01/19 09:51:40;;;;;;;23.38;2.13;;;-0.20;99.90;;;;;;5048696;28;20052;-66
2024/01/19 09:54:09;;;;;;;15.05;2.10;;;-0.20;99.90;;;;;;5048651;28;20114;-67
2024/01/19 09:56:36;;;;;;;12.35;1.80;;;-0.20;99.90;;;;;;5063821;28;20081;-67
2024/01/19 09:59:05;;;;;;;13.80;2.05;;;-0.10;99.90;;;;;;5035878;28;20508;-67
2024/01/19 10:01:32;;;;;;;10.35;1.90;;;-0.10;99.90;;;;;;5083777;28;20055;-67
2024/01/19 10:03:58;;;;;;;11.00;1.73;;;-0.10;99.90;;;;;;5032738;28;20049;-67
2024/01/19 10:06:25;;;;;;;15.00;2.25;;;-0.10;99.90;;;;;;5035788;28;20037;-67
2024/01/19 10:08:55;;;;;;;19.50;3.05;;;0.00;99.90;;;;;;5049422;28;20048;-67
2024/01/19 10:11:22;;;;;;;8.10;1.63;;;0.00;99.90;;;;;;5047306;28;20423;-64
2024/01/19 10:13:48;;;;;;;12.93;2.30;;;0.10;99.90;;;;;;5030485;28;20048;-65
2024/01/19 10:16:13;;;;;;;13.15;2.22;;;0.10;99.90;;;;;;5049519;28;20420;-65
2024/01/19 10:18:41;;;;;;;15.85;2.00;;;0.20;99.90;;;;;;5051350;28;20048;-64
2024/01/19 10:21:07;;;;;;;9.05;1.95;;;0.20;99.90;;;;;;5052509;28;20821;-65
2024/01/19 10:23:33;;;;;;;13.98;2.10;;;0.20;99.90;;;;;;5053138;28;20055;-64
2024/01/19 10:26:13;;;;;;;12.63;2.00;;;0.20;99.90;;;;;;5050551;28;20048;-64
2024/01/19 10:28:39;;;;;;;15.20;2.33;;;0.30;99.90;;;;;;5034450;28;20059;-65
2024/01/19 10:31:21;;;;;;;11.40;1.88;;;0.30;99.90;;;;;;5051800;28;20663;-65
2024/01/19 10:33:57;;;;;;;16.58;3.30;;;1.10;99.90;;;;;;5031688;28;20055;-64
2024/01/19 10:36:23;;;;;;;20.52;3.15;;;0.40;99.90;;;;;;5031446;28;20584;-65
2024/01/19 10:38:49;;;;;;;13.77;2.47;;;0.40;99.90;;;;;;5053607;28;20135;-65
2024/01/19 10:41:16;;;;;;;13.77;2.13;;;0.50;99.90;;;;;;5052760;28;20435;-65
2024/01/19 10:43:42;;;;;;;15.07;1.88;;;0.50;99.90;;;;;;5051434;28;20465;-65
2024/01/19 10:46:22;;;;;;;11.90;2.30;;;0.70;99.90;;;;;;5050616;28;20163;-64
2024/01/19 10:48:50;;;;;;;18.13;1.90;;;0.90;99.90;;;;;;5052099;28;20091;-65
2024/01/19 10:51:21;;;;;;;17.25;2.00;;;0.70;99.90;;;;;;5034647;28;20401;-65
2024/01/19 10:53:51;;;;;;;13.93;2.53;;;0.70;99.90;;;;;;5051823;28;20074;-65
2024/01/19 10:56:21;;;;;;;9.98;1.52;;;0.80;99.90;;;;;;5036715;28;20133;-65
2024/01/19 10:58:47;;;;;;;12.52;2.22;;;0.80;99.90;;;;;;5051133;28;20123;-65
2024/01/19 11:01:15;;;;;;;6.35;1.40;;;0.80;99.90;;;;;;5051755;28;20048;-65
2024/01/19 11:03:44;;;;;;;10.65;2.10;;;0.90;99.90;;;;;;5037443;28;20040;-65
2024/01/19 11:06:11;;;;;;;10.68;1.60;;;0.90;99.90;;;;;;5034507;28;20099;-65
2024/01/19 11:08:40;;;;;;;18.42;2.38;;;1.00;99.90;;;;;;5035433;28;20895;-65
2024/01/19 11:11:06;;;;;;;11.70;1.38;;;1.00;99.90;;;;;;5048668;28;20051;-64
2024/01/19 11:13:40;;;;;;;11.98;1.30;;;1.30;99.90;;;;;;5049007;28;20051;-64
2024/01/19 11:16:20;;;;;;;8.75;1.45;;;1.20;99.90;;;;;;5028937;28;20142;-64
2024/01/19 11:18:47;;;;;;;9.88;1.77;;;1.10;99.90;;;;;;5049370;28;20063;-65
2024/01/19 11:21:14;;;;;;;11.70;1.80;;;1.90;99.90;;;;;;5050085;28;20040;-64
2024/01/19 11:23:40;;;;;;;9.32;1.65;;;1.20;99.90;;;;;;5033729;28;20052;-64
2024/01/19 11:26:14;;;;;;;11.82;2.53;;;1.30;99.90;;;;;;5031588;28;20072;-65
2024/01/19 11:29:25;;;;;;;14.05;1.77;;;1.30;99.90;;;;;;5048956;28;20106;-64
2024/01/19 11:31:52;;;;;;;15.32;1.50;;;1.40;99.90;;;;;;5026054;28;20412;-65
2024/01/19 11:34:49;;;;;;;10.77;1.60;;;2.40;99.90;;;;;;5039608;28;20055;-65
2024/01/19 11:37:44;;;;;;;12.50;1.92;;;1.50;99.90;;;;;;5027790;28;20064;-65
2024/01/19 11:40:30;;;;;;;15.07;2.95;;;1.60;99.90;;;;;;5044298;28;20477;-65
2024/01/19 11:42:56;;;;;;;10.95;1.52;;;1.60;99.90;;;;;;5064384;28;20060;-65
2024/01/19 11:45:28;;;;;;;12.95;1.48;;;1.70;99.90;;;;;;5027359;28;20033;-65
2024/01/19 11:47:57;;;;;;;12.07;1.40;;;2.90;99.90;;;;;;5040523;28;20040;-65
2024/01/19 11:50:52;;;;;;;11.23;1.70;;;1.80;99.90;;;;;;5057252;28;20037;-65
2024/01/19 11:53:18;;;;;;;15.48;1.95;;;1.90;99.90;;;;;;5016781;28;20057;-65
2024/01/19 11:55:48;;;;;;;18.63;2.00;;;1.90;99.90;;;;;;5028922;28;20052;-65
2024/01/19 11:58:40;;;;;;;12.38;1.90;;;1.90;99.90;;;;;;5050650;28;20403;-65
2024/01/19 12:01:07;;;;;;;12.35;1.85;;;2.00;99.90;;;;;;5045784;28;20113;-65
2024/01/19 12:03:34;;;;;;;10.50;1.45;;;2.00;99.90;;;;;;5051597;28;20114;-64
2024/01/19 12:06:01;;;;;;;13.27;2.10;;;2.50;99.90;;;;;;5046556;28;20623;-65
2024/01/19 12:08:27;;;;;;;13.13;1.50;;;2.50;99.90;;;;;;5049054;28;20067;-65
2024/01/19 12:11:03;;;;;;;12.77;2.17;;;2.10;99.90;;;;;;5025038;28;20125;-65
2024/01/19 12:13:30;;;;;;;13.20;1.70;;;2.20;99.90;;;;;;5046184;28;20052;-65
2024/01/19 12:15:56;;;;;;;12.52;1.38;;;2.40;99.90;;;;;;5041451;28;20040;-65
2024/01/19 12:18:22;;;;;;;15.27;1.63;;;2.30;99.90;;;;;;5046104;28;20048;-65
2024/01/19 12:20:52;;;;;;;13.32;1.35;;;2.30;99.90;;;;;;5028917;28;20634;-65
2024/01/19 12:23:18;;;;;;;8.50;1.60;;;2.50;99.90;;;;;;5050332;28;20047;-65
2024/01/19 12:25:44;;;;;;;6.28;1.20;;;2.40;99.90;;;;;;5047317;28;20060;-65
2024/01/19 12:28:12;;;;;;;11.88;2.05;;;2.40;99.90;;;;;;5051242;28;20048;-65
2024/01/19 12:30:38;;;;;;;15.98;2.15;;;2.40;99.90;;;;;;5050927;28;20052;-65
2024/01/19 12:33:17;;;;;;;8.38;1.67;;;2.50;99.90;;;;;;5034478;28;20054;-65
2024/01/19 12:35:45;;;;;;;13.50;1.52;;;2.50;99.90;;;;;;5027972;28;20044;-65
2024/01/19 12:38:14;;;;;;;12.60;1.20;;;2.60;99.90;;;;;;5051724;28;20637;-65
2024/01/19 12:40:41;;;;;;;14.07;1.33;;;2.60;99.90;;;;;;5083162;28;20052;-65
2024/01/19 12:43:06;;;;;;;12.98;1.50;;;2.60;99.90;;;;;;5042046;28;20547;-65
2024/01/19 12:45:34;;;;;;;7.03;1.15;;;2.60;99.90;;;;;;5027893;28;20045;-65